Latest Weather Observations for Woomera

IDS60801

Issued at 1:35 pm CST Wednesday 16 April 2014 (issued every 30 minutes, with the page automatically refreshed every 10 minutes)

About weather observations | Map of weather stations | Latest weather observations for SA | Other Formats
Station Details ID: 016001 Name: WOOMERA AERODROME Lat: -31.16 Lon: 136.81 Height: 166.6 m
Data from the previous 72 hours. | See also: Recent months at Woomera
Date/Time
CST
Temp
°C
App
Temp
°C
Dew
Point
Rel
Hum
%
Delta-T
°C
Wind Press
QNH
hPa
Press
MSL
hPa
Rain
since 9 am
mm
Dir
 
Spd
km/h
Gust
km/h
Spd
kts
Gust
kts
16/01:30pm 24.2 20.1 4.3 27 9.9 W 15 22 8 12 1019.8 - 0.0
16/01:00pm 24.0 20.5 3.7 26 10.0 WSW 11 19 6 10 1020.2 - 0.0
16/12:30pm 23.2 20.2 5.9 32 8.8 W 11 20 6 11 1020.7 - 0.0
16/12:00pm 23.0 19.4 5.0 31 9.0 SSW 13 19 7 10 1021.3 1020.9 0.0
16/11:30am 22.4 18.8 4.9 32 8.7 WSW 13 20 7 11 1021.7 - 0.0
16/11:00am 22.4 20.9 6.6 36 8.1 NW 4 9 2 5 1021.6 - 0.0
16/10:30am 21.9 20.1 7.2 38 7.6 N 6 9 3 5 1021.8 - 0.0
16/10:00am 21.1 19.4 8.4 44 6.7 NNW 7 11 4 6 1021.9 - 0.0
16/09:30am 20.0 18.7 9.8 52 5.5 NNE 7 9 4 5 1021.8 - 0.0
16/09:00am 18.5 17.9 10.5 59 4.3 ESE 4 7 2 4 1022.0 1021.6 0.0
16/08:30am 16.5 15.2 11.1 70 2.9 ESE 9 11 5 6 1021.7 - 0.0
16/08:00am 15.6 14.7 11.5 76 2.2 SE 7 9 4 5 1021.4 - 0.0
16/07:30am 14.1 12.4 11.1 82 1.6 ESE 11 11 6 6 1021.0 - 0.0
16/07:07am 12.4 11.2 10.3 87 1.1 SSE 7 9 4 5 1021.0 - 0.0
16/07:00am 12.1 10.5 10.2 88 1.0 SE 9 11 5 6 1021.0 - 0.0
16/06:30am 12.5 11.3 10.4 87 1.1 SSE 7 9 4 5 1020.7 - 0.0
16/06:00am 13.0 11.5 10.5 85 1.3 SSE 9 11 5 6 1020.8 1020.4 0.0
16/05:30am 13.3 10.9 10.2 81 1.6 SE 13 15 7 8 1020.7 - 0.0
16/05:00am 13.1 10.7 10.0 81 1.6 SSE 13 15 7 8 1020.5 - 0.0
16/04:30am 13.3 11.0 10.4 82 1.5 SSE 13 13 7 7 1020.4 - 0.0
16/04:00am 13.7 11.5 10.9 83 1.5 SE 13 15 7 8 1020.1 - 0.0
16/03:30am 13.5 11.5 10.2 80 1.7 SE 11 13 6 7 1020.0 - 0.0
16/03:00am 13.7 11.7 10.0 78 1.9 ESE 11 13 6 7 1019.9 1019.5 0.0
16/02:30am 14.1 12.0 9.9 76 2.2 SE 11 13 6 7 1020.2 - 0.0
16/02:00am 14.3 11.6 9.0 70 2.7 SE 13 15 7 8 1020.4 - 0.0
16/01:30am 14.7 11.5 8.4 66 3.2 SE 15 17 8 9 1020.5 - 0.0
16/01:00am 14.0 11.6 8.7 70 2.7 S 11 13 6 7 1020.7 - 0.0
16/12:30am 14.4 12.5 9.1 70 2.7 W 9 11 5 6 1020.9 - 0.0
16/12:00am 15.1 13.4 8.4 64 3.4 WSW 7 11 4 6 1020.9 1020.5 0.0
 
Date/Time
CST
Temp
°C
App
Temp
°C
Dew
Point
Rel
Hum
%
Delta-T
°C
Wind Press
QNH
hPa
Press
MSL
hPa
Rain
since 9 am
mm
Dir
 
Spd
km/h
Gust
km/h
Spd
kts
Gust
kts
15/11:30pm 16.4 14.7 8.2 58 4.2 SSW 7 9 4 5 1020.9 - 0.0
15/11:00pm 16.6 14.2 7.2 54 4.7 SW 9 9 5 5 1021.0 - 0.0
15/10:30pm 16.4 14.4 7.2 54 4.6 SW 7 9 4 5 1021.4 - 0.0
15/10:00pm 16.7 14.3 7.1 53 4.8 S 9 13 5 7 1021.4 - 0.0
15/09:30pm 17.8 14.9 6.3 47 5.7 S 11 13 6 7 1021.4 - 0.0
15/09:00pm 17.6 14.3 6.5 48 5.5 S 13 15 7 8 1021.3 1020.9 0.0
15/08:30pm 17.5 14.7 6.9 49 5.3 S 11 13 6 7 1021.2 - 0.0
15/08:00pm 17.9 14.7 6.9 48 5.5 S 13 13 7 7 1020.9 - 0.0
15/07:30pm 18.4 15.7 7.4 48 5.6 S 11 13 6 7 1020.6 - 0.0
15/07:00pm 18.9 16.2 7.3 47 5.9 S 11 11 6 6 1020.3 - 0.0
15/06:30pm 19.5 16.7 7.1 44 6.3 SSW 11 11 6 6 1020.3 - 0.0
15/06:00pm 20.9 18.4 6.5 39 7.3 SSW 9 13 5 7 1020.0 1019.6 0.0
15/05:30pm 21.9 18.4 5.3 34 8.3 S 13 19 7 10 1019.6 - 0.0
15/05:00pm 22.3 18.9 5.7 34 8.4 S 13 19 7 10 1019.7 - 0.0
15/04:30pm 22.4 18.5 5.2 32 8.6 S 15 17 8 9 1019.6 - 0.0
15/04:00pm 22.6 17.9 5.3 32 8.7 SSW 19 24 10 13 1019.8 - 0.0
15/03:30pm 23.7 19.1 5.6 31 9.2 SW 19 24 10 13 1020.0 - 0.0
15/03:00pm 22.6 19.2 5.8 33 8.5 S 13 17 7 9 1020.0 1019.6 0.0
15/02:30pm 23.8 20.0 5.8 31 9.2 SSW 15 20 8 11 1020.0 - 0.0
15/02:00pm 22.5 20.5 7.1 37 8.0 S 7 19 4 10 1020.0 - 0.0
15/01:30pm 22.3 19.3 5.9 34 8.3 S 11 20 6 11 1020.4 - 0.0
15/01:00pm 22.5 19.6 6.5 35 8.2 ESE 11 20 6 11 1020.9 - 0.0
15/12:30pm 22.3 20.3 7.0 37 7.9 WSW 7 20 4 11 1021.3 - 0.0
15/12:00pm 21.9 19.2 7.5 39 7.5 SSE 11 17 6 9 1021.7 1021.3 0.0
15/11:30am 21.4 18.0 7.5 40 7.2 ESE 15 20 8 11 1021.9 - 0.0
15/11:00am 20.3 17.3 7.5 43 6.6 SE 13 19 7 10 1022.1 - 0.0
15/10:30am 19.7 16.0 7.9 46 6.1 ESE 17 22 9 12 1022.2 - 0.0
15/10:00am 18.9 14.8 8.0 49 5.6 SE 19 24 10 13 1022.4 - 0.0
15/09:30am 18.1 14.2 8.7 54 4.9 SE 19 24 10 13 1022.4 - 0.0
15/09:00am 17.0 13.6 9.1 59 4.1 SE 17 20 9 11 1022.4 1022.0 0.0
15/08:30am 15.8 12.0 9.7 67 3.2 SE 20 26 11 14 1022.4 - 0.0
15/08:00am 14.7 10.9 9.7 72 2.6 SSE 20 24 11 13 1022.2 - 0.0
15/07:30am 13.9 10.7 9.8 76 2.1 SSE 17 22 9 12 1022.1 - 0.0
15/07:00am 13.0 9.7 9.7 80 1.7 S 17 20 9 11 1021.8 - 0.0
15/06:30am 13.0 9.7 9.7 80 1.7 S 17 20 9 11 1021.3 - 0.0
15/06:00am 13.1 10.7 10.0 81 1.6 SSE 13 15 7 8 1021.0 1020.6 0.0
15/05:30am 13.5 11.1 10.0 79 1.8 SSE 13 17 7 9 1020.9 - 0.0
15/05:00am 13.9 10.7 10.1 78 2.0 SE 17 22 9 12 1020.7 - 0.0
15/04:30am 13.9 10.8 10.3 79 1.9 SSE 17 22 9 12 1020.7 - 0.0
15/04:00am 14.0 11.3 10.2 78 2.0 SSE 15 20 8 11 1020.7 - 0.0
15/03:30am 14.3 11.1 10.1 76 2.2 SSE 17 22 9 12 1020.5 - 0.0
15/03:00am 14.6 11.4 10.0 74 2.4 SSE 17 20 9 11 1020.4 1020.0 0.0
15/02:30am 14.6 11.8 10.0 74 2.4 SSE 15 19 8 10 1020.6 - 0.0
15/02:00am 14.8 11.9 9.8 72 2.6 S 15 20 8 11 1020.7 - 0.0
15/01:30am 15.4 11.5 9.6 68 3.0 SSE 20 30 11 16 1020.8 - 0.0
15/01:00am 15.8 11.4 9.0 64 3.5 SSE 22 30 12 16 1020.8 - 0.0
15/12:30am 16.1 12.0 8.7 61 3.8 SSE 20 28 11 15 1020.7 - 0.0
15/12:00am 16.4 12.5 8.6 60 4.0 SSE 19 24 10 13 1020.7 1020.3 0.0
 
Date/Time
CST
Temp
°C
App
Temp
°C
Dew
Point
Rel
Hum
%
Delta-T
°C
Wind Press
QNH
hPa
Press
MSL
hPa
Rain
since 9 am
mm
Dir
 
Spd
km/h
Gust
km/h
Spd
kts
Gust
kts
14/11:30pm 16.5 13.0 8.7 60 4.0 S 17 22 9 12 1020.9 - 0.0
14/11:00pm 17.3 12.8 8.4 56 4.6 SSE 22 30 12 16 1021.3 - 0.0
14/10:30pm 17.6 13.7 8.7 56 4.6 SSE 19 26 10 14 1021.4 - 0.0
14/10:00pm 18.1 14.2 9.6 57 4.5 S 20 30 11 16 1021.5 - 0.0
14/09:30pm 17.8 14.5 9.4 58 4.4 S 17 20 9 11 1021.5 - 0.0
14/09:00pm 17.6 14.2 7.8 52 5.0 S 15 17 8 9 1021.1 1020.7 0.0
14/08:30pm 17.8 14.5 6.3 47 5.7 S 13 17 7 9 1020.9 - 0.0
14/08:00pm 18.7 15.2 5.4 41 6.5 SSE 13 15 7 8 1020.7 - 0.0
14/07:30pm 19.5 15.3 5.5 40 6.9 SE 17 20 9 11 1020.5 - 0.0
14/07:00pm 19.3 16.7 7.9 47 5.9 SSE 11 13 6 7 1020.3 - 0.0
14/06:30pm 20.4 16.0 7.4 43 6.7 S 20 24 11 13 1020.0 - 0.0
14/06:00pm 20.9 16.2 7.6 42 6.9 SSW 22 28 12 15 1019.7 1019.3 0.0
14/05:30pm 21.7 16.1 7.2 39 7.5 S 26 33 14 18 1019.3 - 0.0
14/05:00pm 22.3 17.5 7.3 38 7.8 SSW 22 26 12 14 1019.1 - 0.0
14/04:30pm 22.7 17.4 5.1 32 8.8 S 22 30 12 16 1018.9 - 0.0
14/04:00pm 23.2 18.4 5.4 31 9.0 SSE 20 30 11 16 1018.7 - 0.0
14/03:30pm 22.9 18.1 5.5 32 8.8 SSE 20 30 11 16 1018.7 - 0.0
14/03:00pm 22.7 17.8 5.1 32 8.8 SSE 20 28 11 15 1019.0 1018.6 0.0
14/02:30pm 22.9 18.5 6.6 35 8.4 SSE 19 28 10 15 1018.9 - 0.0
14/02:00pm 22.9 18.2 6.1 33 8.6 SSE 20 32 11 17 1018.9 - 0.0
14/01:30pm 22.5 18.0 6.0 34 8.4 S 19 28 10 15 1019.1 - 0.0
14/01:00pm 21.7 16.8 6.9 38 7.6 SSE 22 26 12 14 1019.4 - 0.0
14/12:30pm 21.8 16.7 7.6 40 7.4 SSE 24 32 13 17 1019.9 - 0.0
14/12:00pm 20.9 16.9 8.1 43 6.7 SSE 19 28 10 15 1020.5 1020.1 0.0
14/11:30am 21.1 17.1 8.4 44 6.7 SSE 19 28 10 15 1020.8 - 0.0
14/11:00am 20.4 16.4 8.9 47 6.1 SSE 20 28 11 15 1021.2 - 0.0
14/10:30am 19.9 16.2 9.6 51 5.5 SE 19 24 10 13 1021.5 - 0.0
14/10:00am 19.0 14.9 10.1 56 4.8 SE 22 26 12 14 1021.7 - 0.0
14/09:30am 18.0 14.4 10.6 62 4.0 ESE 20 24 11 13 1021.8 - 0.0
14/09:00am 16.9 13.4 10.8 67 3.3 ESE 20 26 11 14 1021.7 1021.3 0.0
14/08:30am 15.5 11.3 11.2 75 2.3 SE 24 30 13 16 1021.5 - 0.0
14/08:00am 14.6 10.5 11.4 81 1.7 SSE 24 32 13 17 1021.1 - 0.0
14/07:30am 13.5 9.8 11.6 88 1.0 S 22 28 12 15 1020.8 - 0.0
14/07:00am 13.0 9.7 11.7 92 0.7 SSE 20 26 11 14 1020.3 - 0.0
14/06:30am 12.8 10.5 11.7 93 0.6 SSE 15 20 8 11 1020.2 - 0.0
14/06:00am 13.1 10.8 11.8 92 0.7 SE 15 20 8 11 1020.2 1019.8 0.0
14/05:30am 13.2 10.9 11.7 91 0.8 SE 15 19 8 10 1020.0 - 0.0
14/05:00am 13.2 10.9 11.9 92 0.7 SSE 15 19 8 10 1019.8 - 0.0
14/04:30am 13.4 10.1 11.7 89 0.9 SSE 20 30 11 16 1019.6 - 0.0
14/04:00am 13.5 10.3 11.8 89 0.9 SSE 20 26 11 14 1019.4 - 0.0
14/03:30am 13.7 10.4 11.7 88 1.1 SSE 20 28 11 15 1019.4 - 0.0
14/03:00am 13.9 10.1 11.3 84 1.4 SSE 22 28 12 15 1019.5 1019.1 0.0
14/02:30am 14.1 10.7 11.1 82 1.6 SSE 20 28 11 15 1019.7 - 0.0
14/02:00am 14.3 10.7 10.7 79 1.9 SSE 20 26 11 14 1019.8 - 0.0
14/01:30am 14.6 10.7 10.8 78 2.0 SSE 22 30 12 16 1020.0 - 0.0
14/01:00am 14.7 10.8 10.7 77 2.1 S 22 30 12 16 1020.1 - 0.0
14/12:30am 14.8 11.2 10.6 76 2.2 S 20 26 11 14 1020.1 - 0.0
14/12:00am 14.9 11.3 10.6 75 2.3 S 20 24 11 13 1020.2 1019.8 0.0
 
Date/Time
CST
Temp
°C
App
Temp
°C
Dew
Point
Rel
Hum
%
Delta-T
°C
Wind Press
QNH
hPa
Press
MSL
hPa
Rain
since 9 am
mm
Dir
 
Spd
km/h
Gust
km/h
Spd
kts
Gust
kts
13/11:30pm 15.4 11.3 10.1 70 2.8 SSE 22 32 12 17 1020.2 - 0.0
13/11:00pm 15.9 11.3 9.8 67 3.2 SSE 24 30 13 16 1020.4 - 0.0
13/10:30pm 16.3 12.0 9.4 63 3.6 SSE 22 30 12 16 1020.5 - 0.0
13/10:00pm 16.5 13.2 9.6 63 3.6 S 17 22 9 12 1020.6 - 0.0
13/09:30pm 16.8 13.0 9.1 60 4.0 SSE 19 24 10 13 1020.3 - 0.0
13/09:00pm 17.2 13.0 8.2 55 4.6 SSE 20 30 11 16 1019.9 1019.5 0.0
13/08:30pm 17.8 13.1 7.8 52 5.1 SSE 22 26 12 14 1019.7 - 0.0
13/08:00pm 18.5 13.9 8.3 51 5.3 SSE 22 28 12 15 1019.5 - 0.0
13/07:30pm 19.1 14.5 8.1 49 5.7 SSE 22 28 12 15 1019.4 - 0.0
13/07:00pm 19.5 15.5 8.1 47 5.9 SE 19 22 10 12 1019.3 - 0.0
13/06:30pm 19.6 15.7 8.8 49 5.7 SSW 19 28 10 15 1019.1 - 0.0
13/06:00pm 20.3 15.0 8.5 46 6.2 S 26 33 14 18 1018.7 1018.3 0.0
13/05:30pm 21.0 15.8 9.0 46 6.4 SSW 26 32 14 17 1018.6 - 0.0
13/05:00pm 21.6 17.4 9.6 46 6.5 SSW 22 30 12 16 1018.6 - 0.0
13/04:30pm 22.1 17.4 9.1 43 7.0 S 24 32 13 17 1018.6 - 0.0
13/04:00pm 21.9 17.0 8.3 41 7.2 SSW 24 32 13 17 1018.4 - 0.0
13/03:30pm 21.8 17.1 7.9 40 7.3 S 22 35 12 19 1018.5 - 0.0
13/03:00pm 22.0 17.0 7.9 40 7.4 S 24 32 13 17 1018.6 1018.2 0.0
13/02:30pm 22.0 17.8 8.4 41 7.2 S 20 30 11 16 1018.7 - 0.0
13/02:00pm 21.8 18.3 8.9 43 6.9 SSW 17 20 9 11 1018.8 - 0.0

Other Formats:

Comma delimited format used in spreadsheet applications
http://www.bom.gov.au/fwo/IDS60801/IDS60801.94659.axf

JavaScript Object Notation format (JSON) in row-major order
http://www.bom.gov.au/fwo/IDS60801/IDS60801.94659.json